Time;durP1;ratioP1;P1;durP2;ratioP2;P2;SDS_P1;SDS_P2;PMS_P1;PMS_P2;Temp;Humidity;BMP_temperature;BMP_pressure;BME280_temperature;BME280_humidity;BME280_pressure;Samples;Min_cycle;Max_cycle;Signal;HPM_P1;HPM_P2
2023/12/07 00:00:53;;;;;;;16.48;10.73;;;;;;;2.23;52.64;101579.94;4930585;29;20077;-73
2023/12/07 00:03:21;;;;;;;16.48;10.82;;;;;;;2.21;52.53;101581.81;4914560;29;20044;-73
2023/12/07 00:05:50;;;;;;;15.50;10.65;;;;;;;2.20;52.66;101590.84;4932040;29;20136;-74
2023/12/07 00:08:18;;;;;;;13.95;9.48;;;;;;;2.17;52.62;101582.88;4913915;29;20051;-73
2023/12/07 00:10:46;;;;;;;15.30;9.68;;;;;;;2.14;52.50;101583.03;4920593;29;20064;-73
2023/12/07 00:13:14;;;;;;;13.90;9.65;;;;;;;2.13;52.47;101583.06;4932749;29;20054;-74
2023/12/07 00:15:42;;;;;;;12.43;9.07;;;;;;;2.11;52.39;101583.13;4918192;29;20051;-73
2023/12/07 00:18:10;;;;;;;13.93;9.45;;;;;;;2.09;52.51;101589.53;4931062;29;20051;-73
2023/12/07 00:20:38;;;;;;;14.15;9.35;;;;;;;2.08;52.67;101587.78;4931823;29;20095;-73
2023/12/07 00:23:08;;;;;;;14.32;9.75;;;;;;;2.06;52.47;101584.28;4931811;29;20130;-74
2023/12/07 00:25:36;;;;;;;14.88;9.90;;;;;;;2.04;52.52;101578.03;4938573;29;20138;-73
2023/12/07 00:28:05;;;;;;;13.02;9.10;;;;;;;2.04;52.49;101591.53;4936200;28;20054;-73
2023/12/07 00:30:33;;;;;;;14.55;9.48;;;;;;;2.01;52.52;101575.47;4931309;29;20046;-73
2023/12/07 00:33:01;;;;;;;14.02;9.48;;;;;;;1.99;52.60;101577.38;4932563;29;20055;-74
2023/12/07 00:35:29;;;;;;;14.70;9.77;;;;;;;1.99;52.62;101577.38;4931954;29;20142;-73
2023/12/07 00:37:57;;;;;;;13.50;8.98;;;;;;;1.97;52.60;101571.13;4931544;29;20043;-73
2023/12/07 00:40:26;;;;;;;15.23;9.50;;;;;;;1.98;52.69;101572.91;4931908;29;20048;-73
2023/12/07 00:42:55;;;;;;;15.98;10.27;;;;;;;1.94;52.83;101577.53;4938480;29;20070;-73
2023/12/07 00:45:22;;;;;;;13.70;9.55;;;;;;;1.94;52.49;101580.22;4931605;29;20462;-74
2023/12/07 00:47:50;;;;;;;14.20;9.40;;;;;;;1.93;52.67;101574.88;4913887;29;20039;-73
2023/12/07 00:50:18;;;;;;;14.25;10.00;;;;;;;1.91;52.59;101574.09;4931013;29;20143;-73
2023/12/07 00:52:46;;;;;;;15.77;10.27;;;;;;;1.90;52.64;101580.44;4933824;29;20051;-73
2023/12/07 00:55:14;;;;;;;16.65;10.90;;;;;;;1.88;52.68;101584.06;4932592;28;20138;-74
2023/12/07 00:57:44;;;;;;;15.18;10.30;;;;;;;1.88;52.54;101577.78;4916984;29;20061;-74
2023/12/07 01:00:13;;;;;;;15.30;9.55;;;;;;;1.86;52.50;101579.66;4934954;29;20119;-73
2023/12/07 01:02:41;;;;;;;14.43;9.65;;;;;;;1.84;52.57;101589.63;4928487;29;20051;-73
2023/12/07 01:05:10;;;;;;;15.52;9.35;;;;;;;1.83;52.72;101585.19;4931535;29;20071;-73
2023/12/07 01:07:38;;;;;;;14.40;9.70;;;;;;;1.81;52.69;101590.66;4916817;28;20066;-74
2023/12/07 01:10:07;;;;;;;14.82;10.45;;;;;;;1.80;52.66;101586.19;4932040;29;20059;-73
2023/12/07 01:12:36;;;;;;;15.05;10.18;;;;;;;1.77;52.67;101583.59;4930758;29;20120;-73
2023/12/07 01:15:07;;;;;;;14.82;10.25;;;;;;;1.76;52.57;101581.84;4916564;29;20056;-73
2023/12/07 01:17:35;;;;;;;13.98;9.80;;;;;;;1.75;52.71;101581.94;4932343;28;20039;-73
2023/12/07 01:20:07;;;;;;;15.35;9.82;;;;;;;1.74;52.53;101588.25;4931473;29;20062;-73
2023/12/07 01:22:35;;;;;;;13.20;9.13;;;;;;;1.70;52.69;101594.69;4931494;29;20047;-73
2023/12/07 01:25:03;;;;;;;12.77;9.27;;;;;;;1.70;52.45;101592.88;4939235;29;20375;-73
2023/12/07 01:27:31;;;;;;;13.25;9.13;;;;;;;1.69;52.54;101584.84;4934240;28;20090;-73
2023/12/07 01:29:59;;;;;;;15.30;10.32;;;;;;;1.67;52.49;101593.00;4930087;29;20142;-73
2023/12/07 01:32:28;;;;;;;14.25;9.75;;;;;;;1.66;52.48;101588.56;4931921;29;20079;-73
2023/12/07 01:34:56;;;;;;;12.20;8.77;;;;;;;1.64;52.39;101589.56;4930638;29;20122;-73
2023/12/07 01:37:24;;;;;;;12.55;9.27;;;;;;;1.63;52.53;101590.50;4914069;29;20572;-73
2023/12/07 01:39:52;;;;;;;12.45;8.68;;;;;;;1.61;52.62;101586.97;4931274;29;20058;-73
2023/12/07 01:42:20;;;;;;;12.18;8.93;;;;;;;1.60;52.85;101588.78;4931536;29;20052;-73
2023/12/07 01:44:48;;;;;;;11.68;8.32;;;;;;;1.60;52.85;101599.56;4932116;29;20067;-73
2023/12/07 01:47:17;;;;;;;12.27;8.13;;;;;;;1.59;52.80;101595.09;4930741;29;20114;-72
2023/12/07 01:49:46;;;;;;;11.95;8.10;;;;;;;1.60;52.91;101601.38;4934459;29;20047;-73
2023/12/07 01:52:14;;;;;;;14.05;8.27;;;;;;;1.59;52.95;101607.75;4931327;29;20047;-73
2023/12/07 01:54:43;;;;;;;11.43;8.40;;;;;;;1.60;52.94;101609.47;4929980;29;20047;-73
2023/12/07 01:57:11;;;;;;;13.27;8.80;;;;;;;1.59;52.97;101610.44;4930682;29;20125;-73
2023/12/07 01:59:39;;;;;;;11.77;8.35;;;;;;;1.60;53.05;101617.56;4916844;29;20059;-73
2023/12/07 02:02:07;;;;;;;12.30;8.57;;;;;;;1.60;53.00;101621.16;4917751;29;20153;-73
2023/12/07 02:04:36;;;;;;;12.90;9.25;;;;;;;1.61;53.07;101600.44;4935101;29;20036;-73
2023/12/07 02:07:07;;;;;;;11.88;8.63;;;;;;;1.63;53.06;101614.78;4932407;29;20136;-73
2023/12/07 02:09:35;;;;;;;12.93;8.77;;;;;;;1.62;53.13;101611.19;4934454;29;20048;-73
2023/12/07 02:12:04;;;;;;;12.80;8.60;;;;;;;1.63;53.07;101618.34;4917090;29;20051;-73
2023/12/07 02:14:33;;;;;;;15.55;9.52;;;;;;;1.64;53.39;101621.94;4934425;29;20067;-73
2023/12/07 02:17:22;;;;;;;13.07;9.30;;;;;;;1.66;53.26;101625.47;4917779;29;21074;-73
2023/12/07 02:19:57;;;;;;;13.20;9.23;;;;;;;1.65;53.26;101621.88;4934194;29;20051;-73
2023/12/07 02:22:33;;;;;;;14.25;9.75;;;;;;;1.67;53.48;101630.78;4917232;29;20130;-73
2023/12/07 02:25:08;;;;;;;14.90;9.65;;;;;;;1.68;53.42;101621.75;4940405;29;20056;-73
2023/12/07 02:27:39;;;;;;;13.25;9.57;;;;;;;1.69;53.65;101625.31;4933759;29;20070;-73
2023/12/07 02:30:08;;;;;;;16.13;10.70;;;;;;;1.68;53.32;101635.22;4934565;29;20036;-73
2023/12/07 02:32:37;;;;;;;17.20;10.60;;;;;;;1.70;53.56;101632.47;4936322;29;20040;-73
2023/12/07 02:35:07;;;;;;;15.40;10.15;;;;;;;1.70;53.45;101638.75;4931181;29;20036;-73
2023/12/07 02:37:41;;;;;;;13.27;9.65;;;;;;;1.71;53.49;101639.63;4920887;29;20052;-73
2023/12/07 02:40:11;;;;;;;15.70;10.13;;;;;;;1.70;53.54;101644.16;4927956;29;20051;-73
2023/12/07 02:42:42;;;;;;;16.35;10.73;;;;;;;1.71;53.63;101645.03;4930232;29;20039;-73
2023/12/07 02:45:12;;;;;;;14.15;10.05;;;;;;;1.71;53.52;101639.63;4934041;29;20071;-73
2023/12/07 02:47:39;;;;;;;16.83;10.30;;;;;;;1.72;53.58;101644.97;4924098;29;20072;-73
2023/12/07 02:50:09;;;;;;;15.70;9.60;;;;;;;1.73;53.70;101638.66;4933857;29;20413;-73
2023/12/07 02:52:37;;;;;;;14.80;10.20;;;;;;;1.73;53.68;101635.97;4917321;29;20067;-73
2023/12/07 02:55:06;;;;;;;14.30;10.75;;;;;;;1.74;53.81;101647.63;4936282;29;20054;-73
2023/12/07 02:57:34;;;;;;;16.13;10.50;;;;;;;1.74;53.65;101626.03;4927874;29;20044;-73
2023/12/07 03:00:07;;;;;;;16.92;11.30;;;;;;;1.76;53.79;101625.03;4934957;29;20055;-73
2023/12/07 03:02:36;;;;;;;15.50;9.75;;;;;;;1.74;54.08;101621.53;4917331;29;20040;-73
2023/12/07 03:05:05;;;;;;;18.08;10.60;;;;;;;1.77;54.04;101613.28;4923122;29;20449;-73
2023/12/07 03:07:33;;;;;;;15.95;10.25;;;;;;;1.77;53.89;101613.28;4931256;29;20553;-73
2023/12/07 03:10:02;;;;;;;18.95;11.32;;;;;;;1.78;54.02;101609.66;4915704;29;20105;-73
2023/12/07 03:12:31;;;;;;;15.85;10.82;;;;;;;1.78;53.78;101615.06;4934842;29;20242;-73
2023/12/07 03:14:59;;;;;;;17.20;11.10;;;;;;;1.79;53.95;101618.63;4935918;29;20054;-74
2023/12/07 03:17:28;;;;;;;16.10;10.77;;;;;;;1.81;54.26;101616.75;4932789;29;20044;-73
2023/12/07 03:19:56;;;;;;;17.83;11.98;;;;;;;1.80;54.21;101607.78;4933551;29;20043;-74
2023/12/07 03:22:24;;;;;;;16.20;11.02;;;;;;;1.82;54.17;101616.72;4932846;29;20460;-74
2023/12/07 03:24:53;;;;;;;16.42;10.90;;;;;;;1.83;54.24;101610.38;4933806;29;20061;-74
2023/12/07 03:27:21;;;;;;;16.13;10.57;;;;;;;1.84;54.38;101609.41;4932922;29;20217;-74
2023/12/07 03:29:51;;;;;;;16.08;11.07;;;;;;;1.83;54.38;101607.69;4934794;29;20044;-74
2023/12/07 03:32:19;;;;;;;16.30;10.82;;;;;;;1.84;54.38;101612.09;4933335;29;20054;-74
2023/12/07 03:34:48;;;;;;;17.23;11.60;;;;;;;1.86;54.50;101610.22;4916094;29;20413;-74
2023/12/07 03:37:17;;;;;;;17.98;12.15;;;;;;;1.86;54.49;101603.94;4934687;29;20125;-75
2023/12/07 03:39:45;;;;;;;16.48;10.90;;;;;;;1.88;54.49;101599.38;4917315;29;20058;-74
2023/12/07 03:42:13;;;;;;;18.17;11.35;;;;;;;1.88;54.57;101607.47;4931603;29;20043;-74
2023/12/07 03:45:01;;;;;;;17.83;11.43;;;;;;;1.88;54.60;101599.38;4932301;29;20476;-74
2023/12/07 03:47:29;;;;;;;15.73;10.25;;;;;;;1.91;54.56;101609.19;4914511;29;20082;-73
2023/12/07 03:49:58;;;;;;;16.48;10.45;;;;;;;1.93;54.86;101610.88;4933306;29;20051;-74
2023/12/07 03:52:26;;;;;;;15.85;10.10;;;;;;;1.95;54.77;101613.50;4913278;29;20135;-74
2023/12/07 03:54:54;;;;;;;16.15;10.80;;;;;;;1.96;54.72;101609.88;4933077;29;20546;-73
2023/12/07 03:57:22;;;;;;;16.77;10.80;;;;;;;1.98;54.81;101608.00;4916231;29;20139;-74
2023/12/07 03:59:50;;;;;;;16.98;10.68;;;;;;;1.99;54.90;101616.03;4932209;29;20043;-74
2023/12/07 04:02:18;;;;;;;19.70;11.68;;;;;;;2.02;54.80;101612.31;4934159;29;20403;-73
2023/12/07 04:04:46;;;;;;;17.77;11.23;;;;;;;2.03;54.90;101611.38;4931655;29;20667;-74
2023/12/07 04:07:15;;;;;;;17.30;11.18;;;;;;;2.05;55.08;101614.91;4931879;29;20071;-74
2023/12/07 04:09:43;;;;;;;19.30;11.52;;;;;;;2.05;54.94;101605.00;4914539;29;20505;-74
2023/12/07 04:12:11;;;;;;;18.55;11.15;;;;;;;2.08;55.01;101609.41;4932416;29;20123;-73
2023/12/07 04:14:39;;;;;;;19.20;11.43;;;;;;;2.09;55.03;101597.63;4911652;29;20577;-74
2023/12/07 04:17:07;;;;;;;18.60;11.85;;;;;;;2.10;55.06;101602.09;4932457;29;20046;-73
2023/12/07 04:19:35;;;;;;;16.50;11.45;;;;;;;2.11;55.02;101604.72;4930780;29;20097;-73
2023/12/07 04:22:03;;;;;;;19.15;10.70;;;;;;;2.12;54.98;101611.91;4933498;29;20043;-71
2023/12/07 04:24:32;;;;;;;15.60;10.65;;;;;;;2.14;54.90;101617.25;4934797;29;20047;-73
2023/12/07 04:27:00;;;;;;;16.05;10.73;;;;;;;2.14;54.97;101612.72;4931917;29;20118;-74
2023/12/07 04:29:28;;;;;;;16.98;11.55;;;;;;;2.16;55.04;101609.97;4932691;29;20453;-73
2023/12/07 04:31:56;;;;;;;18.83;11.15;;;;;;;2.16;55.34;101618.06;4916492;29;20600;-74
2023/12/07 04:34:24;;;;;;;18.33;11.00;;;;;;;2.17;55.25;101625.19;4931452;29;20051;-73
2023/12/07 04:36:52;;;;;;;16.95;11.45;;;;;;;2.19;55.30;101616.09;4921089;29;20539;-73
2023/12/07 04:39:20;;;;;;;17.90;10.65;;;;;;;2.20;55.32;101628.66;4931226;29;20054;-73
2023/12/07 04:41:50;;;;;;;19.17;10.50;;;;;;;2.24;55.34;101633.03;4931620;29;20527;-73
2023/12/07 04:44:19;;;;;;;17.05;10.93;;;;;;;2.24;55.41;101619.50;4933324;29;20039;-73
2023/12/07 04:46:47;;;;;;;18.67;11.30;;;;;;;2.26;55.42;101627.53;4921535;29;20122;-73
2023/12/07 04:49:14;;;;;;;17.17;11.32;;;;;;;2.28;55.34;101625.66;4927176;29;20582;-73
2023/12/07 04:51:46;;;;;;;17.88;11.07;;;;;;;2.30;55.24;101631.00;4930642;29;20056;-75
2023/12/07 04:54:15;;;;;;;18.15;11.32;;;;;;;2.31;55.39;101628.25;4927213;29;20055;-73
2023/12/07 04:56:47;;;;;;;17.77;11.23;;;;;;;2.32;55.44;101629.13;4916410;29;20424;-73
2023/12/07 04:59:16;;;;;;;18.85;11.23;;;;;;;2.35;55.43;101629.84;4912689;29;20382;-73
2023/12/07 05:01:44;;;;;;;17.27;10.50;;;;;;;2.36;55.36;101633.44;4930586;29;20062;-73
2023/12/07 05:04:12;;;;;;;15.30;10.50;;;;;;;2.39;55.52;101641.44;4929267;29;20110;-73
2023/12/07 05:06:40;;;;;;;17.52;10.90;;;;;;;2.40;55.50;101643.19;4929405;29;20441;-73
2023/12/07 05:09:09;;;;;;;17.48;10.50;;;;;;;2.41;55.43;101640.41;4912699;29;20417;-73
2023/12/07 05:11:37;;;;;;;20.20;11.80;;;;;;;2.43;55.51;101641.22;4909662;29;20048;-73
2023/12/07 05:14:05;;;;;;;18.88;11.15;;;;;;;2.44;55.41;101648.38;4918285;29;20050;-73
2023/12/07 05:16:35;;;;;;;19.35;11.10;;;;;;;2.45;55.49;101647.44;4931608;29;20063;-73
2023/12/07 05:19:03;;;;;;;18.50;10.80;;;;;;;2.46;55.50;101645.63;4913803;29;20059;-73
2023/12/07 05:21:31;;;;;;;19.70;11.40;;;;;;;2.48;55.52;101643.75;4929103;29;20071;-73
2023/12/07 05:23:59;;;;;;;20.40;11.52;;;;;;;2.48;55.60;101647.34;4929735;29;20537;-73
2023/12/07 05:26:29;;;;;;;15.73;10.18;;;;;;;2.49;55.54;101645.50;4931791;29;20040;-73
2023/12/07 05:28:58;;;;;;;21.15;11.70;;;;;;;2.50;55.53;101652.66;4927127;29;20572;-74
2023/12/07 05:31:26;;;;;;;19.63;11.80;;;;;;;2.50;55.58;101655.34;4930844;29;20043;-73
2023/12/07 05:33:56;;;;;;;18.15;11.15;;;;;;;2.51;55.53;101657.13;4926636;29;20570;-73
2023/12/07 05:36:26;;;;;;;17.77;11.32;;;;;;;2.52;55.65;101659.75;4930821;29;20051;-73
2023/12/07 05:38:54;;;;;;;19.20;11.00;;;;;;;2.52;55.65;101657.06;4910907;29;20039;-72
2023/12/07 05:41:22;;;;;;;17.48;10.65;;;;;;;2.53;55.60;101647.13;4928617;29;20050;-73
2023/12/07 05:43:51;;;;;;;18.52;10.95;;;;;;;2.53;55.71;101658.81;4930935;29;20048;-75
2023/12/07 05:46:19;;;;;;;17.63;11.00;;;;;;;2.55;55.71;101648.84;4928210;29;20122;-73
2023/12/07 05:48:47;;;;;;;19.80;11.73;;;;;;;2.55;55.67;101643.44;4928338;29;20048;-74
2023/12/07 05:51:20;;;;;;;19.02;11.35;;;;;;;2.57;55.74;101646.06;4932353;29;20063;-72
2023/12/07 05:53:48;;;;;;;17.75;10.90;;;;;;;2.56;55.65;101641.59;4930525;29;20106;-73
2023/12/07 05:56:20;;;;;;;16.90;10.98;;;;;;;2.59;55.82;101641.47;4927984;29;20044;-73
2023/12/07 05:58:48;;;;;;;15.00;8.60;;;;;;;2.52;55.94;101632.75;4929080;29;20679;-73
2023/12/07 06:01:18;;;;;;;17.77;10.98;;;;;;;2.59;55.83;101641.47;4912559;29;20311;-73
2023/12/07 06:03:46;;;;;;;15.73;10.20;;;;;;;2.60;55.80;101636.00;4930231;29;20047;-72
2023/12/07 06:06:14;;;;;;;15.77;10.32;;;;;;;2.61;55.84;101636.88;4909511;29;20121;-73
2023/12/07 06:08:44;;;;;;;17.95;11.05;;;;;;;2.63;55.89;101635.00;4927203;29;20748;-72
2023/12/07 06:11:12;;;;;;;15.98;10.75;;;;;;;2.64;55.81;101634.06;4920959;29;20532;-73
2023/12/07 06:13:40;;;;;;;16.27;10.20;;;;;;;2.62;55.82;101623.31;4918639;29;20048;-73
2023/12/07 06:16:13;;;;;;;16.52;10.27;;;;;;;2.67;55.91;101630.31;4914451;29;20079;-73
2023/12/07 06:18:41;;;;;;;17.75;11.75;;;;;;;2.63;55.84;101635.00;4913469;29;20053;-73
2023/12/07 06:21:09;;;;;;;16.40;11.40;;;;;;;2.66;55.76;101628.59;4927496;29;20044;-73
2023/12/07 06:23:37;;;;;;;15.80;9.88;;;;;;;2.65;55.72;101633.13;4931284;29;20127;-73
2023/12/07 06:26:07;;;;;;;16.58;11.23;;;;;;;2.66;55.68;101626.75;4931059;29;20051;-75
2023/12/07 06:28:34;;;;;;;17.00;10.75;;;;;;;2.64;55.58;101617.84;4930572;29;20066;-73
2023/12/07 06:31:06;;;;;;;17.17;10.25;;;;;;;2.67;55.82;101616.81;4931647;29;20142;-73
2023/12/07 06:33:34;;;;;;;16.42;9.55;;;;;;;2.64;55.68;101621.44;4930425;29;20058;-73
2023/12/07 06:36:05;;;;;;;16.05;10.13;;;;;;;2.64;55.63;101621.44;4907617;29;20043;-73
2023/12/07 06:38:33;;;;;;;15.27;9.75;;;;;;;2.63;55.72;101622.38;4931005;29;20046;-73
2023/12/07 06:41:03;;;;;;;14.02;9.48;;;;;;;2.63;55.62;101627.78;4930892;29;20115;-72
2023/12/07 06:43:33;;;;;;;14.65;9.68;;;;;;;2.64;55.81;101621.44;4930577;29;20417;-73
2023/12/07 06:46:01;;;;;;;15.70;9.23;;;;;;;2.63;55.73;101619.66;4915270;29;20059;-76
2023/12/07 06:48:29;;;;;;;17.63;9.55;;;;;;;2.63;55.55;101613.38;4914543;29;20580;-73
2023/12/07 06:50:57;;;;;;;15.95;9.75;;;;;;;2.63;55.66;101616.09;4935054;29;20036;-76
2023/12/07 06:53:25;;;;;;;14.25;8.98;;;;;;;2.63;55.65;101619.66;4919557;29;20103;-73
2023/12/07 06:55:52;;;;;;;15.50;9.38;;;;;;;2.63;55.76;101618.78;4934323;29;20079;-74
2023/12/07 06:58:21;;;;;;;13.10;8.80;;;;;;;2.63;55.62;101629.59;4936981;29;20112;-73
2023/12/07 07:00:50;;;;;;;14.27;9.48;;;;;;;2.63;55.58;101613.38;4954248;28;20517;-73
2023/12/07 07:03:18;;;;;;;14.27;9.40;;;;;;;2.61;55.50;101621.53;4940682;29;20048;-73
2023/12/07 07:05:46;;;;;;;14.45;8.73;;;;;;;2.60;55.57;101622.50;4934596;29;20106;-73
2023/12/07 07:08:14;;;;;;;13.63;9.15;;;;;;;2.60;55.56;101610.78;4917069;29;20055;-73
2023/12/07 07:10:42;;;;;;;12.60;8.65;;;;;;;2.60;55.35;101618.91;4934572;29;20058;-72
2023/12/07 07:13:10;;;;;;;15.32;9.27;;;;;;;2.58;55.47;101608.16;4935343;29;20047;-73
2023/12/07 07:15:38;;;;;;;14.95;9.00;;;;;;;2.57;55.55;101616.34;4934297;29;20134;-73
2023/12/07 07:18:08;;;;;;;14.52;10.02;;;;;;;2.57;55.44;101614.53;4939199;29;20094;-73
2023/12/07 07:20:36;;;;;;;15.40;9.48;;;;;;;2.54;55.26;101619.16;4953490;29;20043;-73
2023/12/07 07:23:04;;;;;;;14.75;9.52;;;;;;;2.52;55.24;101616.53;4953512;28;20078;-73
2023/12/07 07:25:32;;;;;;;14.45;9.60;;;;;;;2.50;55.05;101617.53;4953306;29;20074;-73
2023/12/07 07:28:00;;;;;;;14.68;9.57;;;;;;;2.47;55.17;101623.97;4954089;28;20134;-73
2023/12/07 07:30:27;;;;;;;13.18;8.70;;;;;;;2.45;55.32;101617.72;4954306;28;20063;-73
2023/12/07 07:32:56;;;;;;;14.50;9.55;;;;;;;2.44;55.28;101617.78;5016737;23;20885;-75
2023/12/07 07:35:27;;;;;;;15.10;8.98;;;;;;;2.44;55.13;101615.09;4935189;28;20462;-75
2023/12/07 07:37:55;;;;;;;13.98;9.30;;;;;;;2.40;55.26;101611.66;4929387;29;20055;-76
2023/12/07 07:40:24;;;;;;;13.02;8.25;;;;;;;2.40;55.17;101619.75;4898875;29;20040;-75
2023/12/07 07:42:53;;;;;;;13.60;8.07;;;;;;;2.38;55.28;101618.94;4916407;29;20067;-75
2023/12/07 07:45:21;;;;;;;15.80;9.07;;;;;;;2.36;55.35;101623.50;4899021;29;20064;-75
2023/12/07 07:47:48;;;;;;;14.85;9.27;;;;;;;2.34;55.21;101627.22;4916079;29;20521;-75
2023/12/07 07:50:17;;;;;;;15.70;9.82;;;;;;;2.31;55.20;101619.25;4898800;29;20123;-75
2023/12/07 07:52:46;;;;;;;14.82;9.48;;;;;;;2.31;55.05;101614.72;4898469;29;20131;-75
2023/12/07 07:55:14;;;;;;;13.25;8.35;;;;;;;2.28;55.19;101617.56;4916510;29;20134;-75
2023/12/07 07:57:43;;;;;;;14.55;8.52;;;;;;;2.26;55.05;101620.31;4881112;29;20049;-74
2023/12/07 08:00:13;;;;;;;15.30;9.63;;;;;;;2.23;55.18;101617.75;4906219;29;20147;-74
2023/12/07 08:02:41;;;;;;;13.73;9.45;;;;;;;2.22;55.15;101620.50;4912422;29;20151;-75
2023/12/07 08:05:11;;;;;;;13.63;8.63;;;;;;;2.21;55.10;101618.75;4910646;29;20517;-74
2023/12/07 08:07:41;;;;;;;11.73;8.20;;;;;;;2.20;55.23;101620.56;4897476;29;20052;-74
2023/12/07 08:10:11;;;;;;;13.65;8.52;;;;;;;2.20;55.31;101625.97;4915922;29;20044;-74
2023/12/07 08:12:41;;;;;;;12.93;8.48;;;;;;;2.19;55.33;101626.91;4915538;29;20083;-75
2023/12/07 08:15:10;;;;;;;12.23;8.27;;;;;;;2.19;55.25;101632.31;4915296;29;20071;-73
2023/12/07 08:17:40;;;;;;;12.98;8.07;;;;;;;2.20;55.42;101631.38;4914594;29;20048;-73
2023/12/07 08:20:10;;;;;;;12.05;8.15;;;;;;;2.18;55.57;101633.25;4914524;29;20533;-73
2023/12/07 08:22:38;;;;;;;13.73;8.48;;;;;;;2.19;55.58;101632.31;4914298;29;20063;-73
2023/12/07 08:25:08;;;;;;;14.80;8.45;;;;;;;2.18;55.24;101625.13;4914863;29;20044;-73
2023/12/07 08:27:41;;;;;;;13.00;8.40;;;;;;;2.17;55.33;101642.28;4914584;29;20462;-73
2023/12/07 08:30:10;;;;;;;12.27;8.13;;;;;;;2.19;55.22;101639.53;4897419;29;20044;-74
2023/12/07 08:33:41;;;;;;;12.48;8.32;;;;;;;2.17;55.79;101636.00;4914199;29;20044;-74
2023/12/07 08:36:10;;;;;;;11.73;7.63;;;;;;;2.15;55.44;101630.69;4896164;29;20110;-72
2023/12/07 08:38:38;;;;;;;11.40;8.35;;;;;;;2.16;55.41;101635.16;4907939;29;20048;-72
2023/12/07 08:41:05;;;;;;;12.02;8.10;;;;;;;2.18;55.42;101635.06;4906486;29;20107;-72
2023/12/07 08:43:35;;;;;;;11.57;7.57;;;;;;;2.18;55.26;101644.03;4910499;29;20569;-72
2023/12/07 08:46:03;;;;;;;12.55;8.30;;;;;;;2.18;55.41;101649.44;4894397;29;20060;-72
2023/12/07 08:48:31;;;;;;;13.18;8.18;;;;;;;2.19;55.48;101644.94;4896355;29;20063;-72
2023/12/07 08:51:00;;;;;;;13.90;8.55;;;;;;;2.19;55.47;101643.09;4907548;29;20049;-72
2023/12/07 08:53:28;;;;;;;12.77;8.43;;;;;;;2.20;55.48;101644.00;4909415;29;20036;-72
2023/12/07 08:55:56;;;;;;;13.30;8.88;;;;;;;2.22;55.47;101650.22;4903136;29;20055;-72
2023/12/07 08:58:24;;;;;;;12.55;7.97;;;;;;;2.23;55.53;101646.56;4908074;29;20563;-73
2023/12/07 09:00:53;;;;;;;13.70;7.57;;;;;;;2.25;55.55;101648.25;4904032;29;20433;-75
2023/12/07 09:03:21;;;;;;;11.38;7.97;;;;;;;2.26;55.63;101639.22;4908980;29;20036;-74
2023/12/07 09:05:49;;;;;;;12.35;8.20;;;;;;;2.28;55.75;101646.38;4909261;29;20055;-75
2023/12/07 09:08:17;;;;;;;14.20;9.05;;;;;;;2.29;55.86;101646.31;4898143;29;20059;-74
2023/12/07 09:10:45;;;;;;;12.35;8.35;;;;;;;2.31;55.79;101644.44;4892310;29;20107;-74
2023/12/07 09:13:13;;;;;;;13.70;9.50;;;;;;;2.32;55.68;101646.22;4896686;29;20046;-75
2023/12/07 09:15:42;;;;;;;15.90;9.85;;;;;;;2.34;55.72;101636.19;4905933;29;20071;-75
2023/12/07 09:18:11;;;;;;;13.93;8.82;;;;;;;2.38;55.48;101636.97;4904128;29;20044;-75
2023/12/07 09:20:45;;;;;;;15.32;9.63;;;;;;;2.36;55.51;101630.72;4908376;29;20056;-75
2023/12/07 09:23:14;;;;;;;13.52;8.70;;;;;;;2.39;55.56;101633.31;4895173;29;20513;-75
2023/12/07 09:25:43;;;;;;;14.40;9.45;;;;;;;2.42;55.53;101630.47;4902654;29;20044;-75
2023/12/07 09:28:11;;;;;;;14.32;9.35;;;;;;;2.41;55.77;101626.88;4906023;29;20305;-75
2023/12/07 09:30:39;;;;;;;13.90;9.40;;;;;;;2.45;55.63;101622.25;4906755;29;20056;-75
2023/12/07 09:33:07;;;;;;;13.80;9.75;;;;;;;2.47;55.57;101628.47;4909290;29;20051;-75
2023/12/07 09:35:37;;;;;;;13.00;9.30;;;;;;;2.52;55.53;101631.84;4889598;29;20136;-74
2023/12/07 09:38:06;;;;;;;15.50;9.43;;;;;;;2.54;55.66;101635.38;4909819;29;20104;-74
2023/12/07 09:40:34;;;;;;;15.98;10.05;;;;;;;2.55;55.69;101638.03;4903123;29;20040;-74
2023/12/07 09:43:03;;;;;;;12.35;8.85;;;;;;;2.60;55.49;101637.81;4910197;29;20075;-74
2023/12/07 09:45:31;;;;;;;15.65;9.27;;;;;;;2.62;55.65;101639.53;4908081;29;20046;-74
2023/12/07 09:48:02;;;;;;;15.55;9.18;;;;;;;2.66;55.40;101642.09;4909116;29;20038;-74
2023/12/07 09:50:30;;;;;;;14.25;9.38;;;;;;;2.68;55.44;101629.38;4904776;29;20048;-74
2023/12/07 09:53:00;;;;;;;15.30;9.80;;;;;;;2.71;55.38;101632.84;4905838;29;20048;-74
2023/12/07 09:55:35;;;;;;;14.70;9.95;;;;;;;2.72;55.37;101620.22;4894208;29;20359;-75
2023/12/07 09:58:06;;;;;;;12.82;8.93;;;;;;;2.76;55.45;101619.13;4909620;29;20048;-74
2023/12/07 10:00:36;;;;;;;15.02;10.13;;;;;;;2.79;55.71;101610.91;4897700;29;20059;-74
2023/12/07 10:03:07;;;;;;;15.48;9.90;;;;;;;2.82;55.48;101600.84;4902527;29;20099;-74
2023/12/07 10:05:54;;;;;;;15.93;9.50;;;;;;;2.87;54.72;101608.72;4906844;29;20041;-75
2023/12/07 10:08:31;;;;;;;14.23;9.07;;;;;;;2.92;54.70;101617.50;4908653;29;20429;-74
2023/12/07 10:11:07;;;;;;;15.20;9.15;;;;;;;2.95;54.60;101618.28;4890391;29;20528;-74
2023/12/07 10:13:36;;;;;;;15.52;9.73;;;;;;;2.97;55.25;101612.81;4910428;29;20040;-74
2023/12/07 10:16:12;;;;;;;14.43;9.35;;;;;;;3.03;54.58;101604.41;4894193;29;20036;-75
2023/12/07 10:18:41;;;;;;;13.23;8.95;;;;;;;3.06;55.43;101604.28;4906307;29;20533;-75
2023/12/07 10:21:12;;;;;;;13.30;8.85;;;;;;;3.09;54.97;101600.53;4905793;29;20072;-76
2023/12/07 10:23:46;;;;;;;14.00;8.90;;;;;;;3.14;54.84;101609.34;4916051;29;20156;-76
2023/12/07 10:26:19;;;;;;;13.75;9.57;;;;;;;3.15;54.73;101603.88;4914172;29;20067;-76
2023/12/07 10:28:49;;;;;;;13.23;8.15;;;;;;;3.18;55.01;101598.31;4896934;29;20044;-76
2023/12/07 10:31:19;;;;;;;15.05;8.70;;;;;;;3.25;54.66;101590.78;4910341;29;20051;-76
2023/12/07 10:33:48;;;;;;;13.23;8.60;;;;;;;3.28;54.58;101591.53;4915682;29;20048;-78
2023/12/07 10:36:16;;;;;;;14.52;9.13;;;;;;;3.30;54.54;101584.25;4902580;29;20048;-77
2023/12/07 10:38:46;;;;;;;14.10;9.00;;;;;;;3.34;54.29;101583.16;4920429;29;20127;-76
2023/12/07 10:41:16;;;;;;;15.65;8.82;;;;;;;3.35;54.20;101568.69;4900027;29;20045;-77
2023/12/07 10:43:45;;;;;;;13.95;9.73;;;;;;;3.35;54.01;101560.59;4913170;29;20131;-77
2023/12/07 10:46:16;;;;;;;13.82;9.13;;;;;;;3.35;53.75;101551.59;4920221;29;20108;-77
2023/12/07 10:48:47;;;;;;;14.98;9.15;;;;;;;3.36;53.92;101559.63;4919085;29;20056;-77
2023/12/07 10:51:24;;;;;;;13.45;8.68;;;;;;;3.36;53.46;101542.53;4920436;29;20112;-78
2023/12/07 10:53:58;;;;;;;13.82;9.63;;;;;;;3.33;53.46;101548.06;4903700;29;20099;-77
2023/12/07 10:56:30;;;;;;;16.60;9.80;;;;;;;3.31;53.09;101542.75;4903953;29;20048;-78
2023/12/07 10:58:59;;;;;;;14.63;8.90;;;;;;;3.28;53.37;101540.16;4902631;29;20471;-78
2023/12/07 11:01:28;;;;;;;16.85;10.32;;;;;;;3.26;53.42;101527.63;4884926;29;20036;-77
2023/12/07 11:03:57;;;;;;;13.63;9.38;;;;;;;3.26;53.52;101527.63;4912656;29;20088;-77
2023/12/07 11:06:25;;;;;;;13.65;8.60;;;;;;;3.24;53.60;101522.28;4919743;29;20044;-78
2023/12/07 11:09:00;;;;;;;14.18;9.27;;;;;;;3.23;53.05;101515.16;4901996;29;20052;-77
2023/12/07 11:11:32;;;;;;;13.55;8.60;;;;;;;3.22;53.32;101507.09;4919748;29;20100;-78
2023/12/07 11:14:05;;;;;;;13.10;8.63;;;;;;;3.21;53.81;101497.22;4902725;29;20135;-78
2023/12/07 11:16:35;;;;;;;13.02;8.20;;;;;;;3.22;53.92;101490.88;4902946;29;20421;-78
2023/12/07 11:19:04;;;;;;;12.30;8.15;;;;;;;3.25;53.94;101497.00;4904388;29;20117;-78
2023/12/07 11:21:35;;;;;;;14.18;8.60;;;;;;;3.28;54.09;101499.56;4892589;29;20083;-78
2023/12/07 11:24:05;;;;;;;16.02;8.85;;;;;;;3.29;53.74;101487.81;4938705;29;20043;-78
2023/12/07 11:26:32;;;;;;;14.73;9.07;;;;;;;3.29;53.86;101495.91;4921178;29;20044;-77
2023/12/07 11:29:00;;;;;;;14.07;9.50;;;;;;;3.31;53.74;101479.66;4925091;29;20054;-76
2023/12/07 11:31:28;;;;;;;12.95;8.70;;;;;;;3.31;53.55;101476.94;4919424;29;20080;-78